Metar værinformasjon fra luftfart     ENZV Stavanger Airport Sola
Temperatur
9°C Temperatur
3°C Duggpunkt
66% Luftfuktighet



Vind
4 M/S
9 MPT
14 KM/T
8 KNP



310°
NV
Nåværende forhold

For det meste Overskyet For det meste Overskyet
Trykk 1000.92 (hPa) - 29.56 (inHg)
Sikt 6.2 (mil) - 10 (km)
Flyplass
Flyplass-kode ENZV

Plassering: Stavanger Airport Sola
Avstand: 14 (km)

Metar:
ENZV 230220Z 31008KT 9999 BKN035 09/03 Q1001

Tid: 23-10-2020 04:20 CEST